Johnny James — WYT8450 — position and weather

sailwx.info

Track history (hours):
 
Tides and Currents Weather Stations Pressure Air Temp Water Temp Dewpoint Dewpoint Depression Visibility Wind Speed Wind Dir Waves Ship Positions

Johnny James

Owner: CALLAIS & SONS INC, CUT OFF, LA. More information available from US FCC via Universal Licensing System and Coast Guard Vessel Documentation Center.

Last reported at 2016-Jul-25 13:33 UTC. Time now 2016-Jul-25 14:05 UTC.
Position N 29°34' W 090°34'.

Length 20 m.

Type: Towing. MMSI: 367005220.

Date/timePositionNaut miles runAvg speedWind from/ knotsBaromVisibWave heightAir tempDewpointWater temp
2016-Jul-25 13:33N 29°34' W 090°34'4 3.6
2016-Jul-25 12:33N 29°35' W 090°38'4 3.6
2016-Jul-25 11:34N 29°37' W 090°42'3 3.1
2016-Jul-25 10:33N 29°34' W 090°44'4 3.8
2016-Jul-25 09:34N 29°32' W 090°47'5 5.0
2016-Jul-25 08:28N 29°33' W 090°54'45 3.5
2016-Jul-24 19:26N 29°46' W 091°43'10 3.5
2016-Jul-24 16:33N 29°51' W 091°53'4 4.0
2016-Jul-24 15:33N 29°50' W 091°58'4 4.0
2016-Jul-24 14:33N 29°49' W 092°02'5 4.5
2016-Jul-24 13:33N 29°47' W 092°07'4 4.2
2016-Jul-24 12:33N 29°47' W 092°12'4 4.4
2016-Jul-24 11:33N 29°49' W 092°17'4 3.9
2016-Jul-24 10:33N 29°51' W 092°21'3 3.3
2016-Jul-24 09:33N 29°53' W 092°24'4 4.2
2016-Jul-24 08:33N 29°54' W 092°28'10 4.1
2016-Jul-24 06:07N 29°56' W 092°40'3 4.2
2016-Jul-24 05:31N 29°57' W 092°42'4 4.0
2016-Jul-24 04:29N 29°58' W 092°47'4 4.3
2016-Jul-24 03:33N 29°57' W 092°51'4 4.0
2016-Jul-24 02:33N 29°56' W 092°56'4 4.1
2016-Jul-24 01:33N 29°56' W 093°00'4 4.1
2016-Jul-24 00:32N 29°56' W 093°05'4 3.8
2016-Jul-23 23:33N 29°56' W 093°09'4 4.1
2016-Jul-23 22:33N 29°59' W 093°13'3 3.1
2016-Jul-23 21:33N 30°02' W 093°14'2 2.3
2016-Jul-23 20:34N 30°04' W 093°16'3 2.6
2016-Jul-23 19:33N 30°06' W 093°18'2 1.7
2016-Jul-23 18:34N 30°05' W 093°20'3 3.1
2016-Jul-23 17:34N 30°04' W 093°23'4 4.4
2016-Jul-23 16:33N 30°04' W 093°28'4 4.2
2016-Jul-23 15:33N 30°04' W 093°33'5 4.6
2016-Jul-23 14:33N 30°04' W 093°38'5 4.8
2016-Jul-23 13:33N 30°03' W 093°44'5 5.2
2016-Jul-23 12:33N 29°59' W 093°48'4 4.5
2016-Jul-23 11:33N 29°56' W 093°52'5 4.8
2016-Jul-23 10:33N 29°53' W 093°55'4 4.4
2016-Jul-23 09:32N 29°49' W 093°59'13 4.2
2016-Jul-23 06:28N 29°41' W 094°11'39 3.4
2016-Jul-22 19:10N 29°32' W 094°54'3 5.1
2016-Jul-22 18:33N 29°35' W 094°56'5 5.3
2016-Jul-22 17:33N 29°39' W 094°58'5 4.6
2016-Jul-22 16:33N 29°43' W 095°01'2 1.7
2016-Jul-22 15:32N 29°44' W 095°03'0 0.0
2016-Jul-22 14:33N 29°44' W 095°03'0 0.0
2016-Jul-22 13:32N 29°44' W 095°03'0 0.0
2016-Jul-22 12:32N 29°44' W 095°03'0 0.0
2016-Jul-22 11:33N 29°44' W 095°03'0 0.0
2016-Jul-22 10:32N 29°44' W 095°03'0 0.0
2016-Jul-22 09:29N 29°44' W 095°03'0 0.0
2016-Jul-22 08:32N 29°44' W 095°03'0 0.0
2016-Jul-22 07:31N 29°44' W 095°03'0 0.0
2016-Jul-22 04:33N 29°44' W 095°03'0 0.0
2016-Jul-22 03:33N 29°44' W 095°03'0 0.0
2016-Jul-22 02:33N 29°44' W 095°03'0 0.0
2016-Jul-22 01:33N 29°44' W 095°03'0 0.0
2016-Jul-22 00:33N 29°44' W 095°03'0 0.0
2016-Jul-21 23:32N 29°44' W 095°03'0 0.0
2016-Jul-21 22:33N 29°44' W 095°03'0 0.0
2016-Jul-21 21:31N 29°44' W 095°03'0 0.0
2016-Jul-21 20:33N 29°44' W 095°03'3 2.6
2016-Jul-21 19:31N 29°46' W 095°06'0 0.0
2016-Jul-21 18:06N 29°46' W 095°06'0 0.0
2016-Jul-21 17:26N 29°46' W 095°06'2 0.2
2016-Jul-21 08:09N 29°47' W 095°04'0 0.0
2016-Jul-21 02:33N 29°47' W 095°04'0 0.0
2016-Jul-20 23:13N 29°47' W 095°04'0 0.2
2016-Jul-20 22:31N 29°47' W 095°04'1 0.6
2016-Jul-20 21:24N 29°47' W 095°05'1 0.1
2016-Jul-20 09:12N 29°46' W 095°06'2 2.6
2016-Jul-20 08:33N 29°44' W 095°07'1 0.0
2016-Jul-19 17:32N 29°44' W 095°07'2 1.9
2016-Jul-19 16:24N 29°46' W 095°06'0 0.6
2016-Jul-19 15:33N 29°45' W 095°06'0 0.0
2016-Jul-19 14:33N 29°45' W 095°06'0 0.0
2016-Jul-19 13:34N 29°45' W 095°06'0 0.0
2016-Jul-19 12:33N 29°45' W 095°06'0 0.0
2016-Jul-19 11:34N 29°45' W 095°06'0 0.0
2016-Jul-19 10:33N 29°45' W 095°06'0 0.0
2016-Jul-19 09:33N 29°45' W 095°06'0 0.4
2016-Jul-19 08:33N 29°46' W 095°05'0 0.0
2016-Jul-19 07:31N 29°46' W 095°05'0 0.0
2016-Jul-19 04:33N 29°46' W 095°05'0 0.0
2016-Jul-19 03:34N 29°46' W 095°05'0 0.0
2016-Jul-19 02:33N 29°46' W 095°05'0 0.5
2016-Jul-19 01:33N 29°45' W 095°06'2 2.1
2016-Jul-19 00:24N 29°44' W 095°08'6 2.7
2016-Jul-18 22:18N 29°43' W 095°14'3 0.1
2016-Jul-17 22:12N 29°45' W 095°11'4 4.3
2016-Jul-17 21:22N 29°45' W 095°06'1 1.6
2016-Jul-17 20:33N 29°46' W 095°06'0 0.0
2016-Jul-17 17:13N 29°46' W 095°06'0 0.0
2016-Jul-17 16:31N 29°46' W 095°06'0 0.0
2016-Jul-17 15:33N 29°46' W 095°06'0 0.0
2016-Jul-17 14:32N 29°46' W 095°06'0 0.0
2016-Jul-17 13:30N 29°46' W 095°06'0 0.0
2016-Jul-17 04:18N 29°46' W 095°06'2 2.2
2016-Jul-17 03:30N 29°47' W 095°04'0 0.0
2016-Jul-17 02:34N 29°47' W 095°04'0 0.0
2016-Jul-17 01:33N 29°47' W 095°04'0 0.0
2016-Jul-17 00:33N 29°47' W 095°04'0 0.0
2016-Jul-16 23:33N 29°47' W 095°04'0 0.0
2016-Jul-16 22:32N 29°47' W 095°04'0 0.0
2016-Jul-16 21:33N 29°47' W 095°04'0 0.0
2016-Jul-16 20:33N 29°47' W 095°04'0 0.0
2016-Jul-16 19:31N 29°47' W 095°04'0 0.0
2016-Jul-16 18:31N 29°47' W 095°04'0 0.0
2016-Jul-16 17:30N 29°47' W 095°04'0 0.0
2016-Jul-16 16:32N 29°47' W 095°04'0 0.0
2016-Jul-16 15:33N 29°47' W 095°04'3 2.1
2016-Jul-16 14:07N 29°44' W 095°06'1 0.1
2016-Jul-16 00:31N 29°46' W 095°05'0 0.4
2016-Jul-15 23:27N 29°46' W 095°06'7 2.3
2016-Jul-15 20:22N 29°44' W 095°13'4 5.4
2016-Jul-15 19:33N 29°44' W 095°08'3 1.4
2016-Jul-15 17:27N 29°46' W 095°05'1 0.6
2016-Jul-15 15:09N 29°45' W 095°06'  
Track history (hours):
 
Tides and Currents Weather Stations Pressure Air Temp Water Temp Dewpoint Dewpoint Depression Visibility Wind Speed Wind Dir Waves Ship Positions

Johnny James

Owner: CALLAIS & SONS INC, CUT OFF, LA. More information available from US FCC via Universal Licensing System and Coast Guard Vessel Documentation Center.

Last reported at 2016-Jul-25 13:33 UTC. Time now 2016-Jul-25 14:05 UTC.
Position N 29°34' W 090°34'.

Length 20 m.

Type: Towing. MMSI: 367005220.

Date/timePositionNaut miles runAvg speedWind from/ knotsBaromVisibWave heightAir tempDewpointWater temp
2016-Jul-25 13:33N 29°34' W 090°34'4 3.6
2016-Jul-25 12:33N 29°35' W 090°38'4 3.6
2016-Jul-25 11:34N 29°37' W 090°42'3 3.1
2016-Jul-25 10:33N 29°34' W 090°44'4 3.8
2016-Jul-25 09:34N 29°32' W 090°47'5 5.0
2016-Jul-25 08:28N 29°33' W 090°54'45 3.5
2016-Jul-24 19:26N 29°46' W 091°43'10 3.5
2016-Jul-24 16:33N 29°51' W 091°53'4 4.0
2016-Jul-24 15:33N 29°50' W 091°58'4 4.0
2016-Jul-24 14:33N 29°49' W 092°02'5 4.5
2016-Jul-24 13:33N 29°47' W 092°07'4 4.2
2016-Jul-24 12:33N 29°47' W 092°12'4 4.4
2016-Jul-24 11:33N 29°49' W 092°17'4 3.9
2016-Jul-24 10:33N 29°51' W 092°21'3 3.3
2016-Jul-24 09:33N 29°53' W 092°24'4 4.2
2016-Jul-24 08:33N 29°54' W 092°28'10 4.1
2016-Jul-24 06:07N 29°56' W 092°40'3 4.2
2016-Jul-24 05:31N 29°57' W 092°42'4 4.0
2016-Jul-24 04:29N 29°58' W 092°47'4 4.3
2016-Jul-24 03:33N 29°57' W 092°51'4 4.0
2016-Jul-24 02:33N 29°56' W 092°56'4 4.1
2016-Jul-24 01:33N 29°56' W 093°00'4 4.1
2016-Jul-24 00:32N 29°56' W 093°05'4 3.8
2016-Jul-23 23:33N 29°56' W 093°09'4 4.1
2016-Jul-23 22:33N 29°59' W 093°13'3 3.1
2016-Jul-23 21:33N 30°02' W 093°14'2 2.3
2016-Jul-23 20:34N 30°04' W 093°16'3 2.6
2016-Jul-23 19:33N 30°06' W 093°18'2 1.7
2016-Jul-23 18:34N 30°05' W 093°20'3 3.1
2016-Jul-23 17:34N 30°04' W 093°23'4 4.4
2016-Jul-23 16:33N 30°04' W 093°28'4 4.2
2016-Jul-23 15:33N 30°04' W 093°33'5 4.6
2016-Jul-23 14:33N 30°04' W 093°38'5 4.8
2016-Jul-23 13:33N 30°03' W 093°44'5 5.2
2016-Jul-23 12:33N 29°59' W 093°48'4 4.5
2016-Jul-23 11:33N 29°56' W 093°52'5 4.8
2016-Jul-23 10:33N 29°53' W 093°55'4 4.4
2016-Jul-23 09:32N 29°49' W 093°59'13 4.2
2016-Jul-23 06:28N 29°41' W 094°11'39 3.4
2016-Jul-22 19:10N 29°32' W 094°54'3 5.1
2016-Jul-22 18:33N 29°35' W 094°56'5 5.3
2016-Jul-22 17:33N 29°39' W 094°58'5 4.6
2016-Jul-22 16:33N 29°43' W 095°01'2 1.7
2016-Jul-22 15:32N 29°44' W 095°03'0 0.0
2016-Jul-22 14:33N 29°44' W 095°03'0 0.0
2016-Jul-22 13:32N 29°44' W 095°03'0 0.0
2016-Jul-22 12:32N 29°44' W 095°03'0 0.0
2016-Jul-22 11:33N 29°44' W 095°03'0 0.0
2016-Jul-22 10:32N 29°44' W 095°03'0 0.0
2016-Jul-22 09:29N 29°44' W 095°03'0 0.0
2016-Jul-22 08:32N 29°44' W 095°03'0 0.0
2016-Jul-22 07:31N 29°44' W 095°03'0 0.0
2016-Jul-22 04:33N 29°44' W 095°03'0 0.0
2016-Jul-22 03:33N 29°44' W 095°03'0 0.0
2016-Jul-22 02:33N 29°44' W 095°03'0 0.0
2016-Jul-22 01:33N 29°44' W 095°03'0 0.0
2016-Jul-22 00:33N 29°44' W 095°03'0 0.0
2016-Jul-21 23:32N 29°44' W 095°03'0 0.0
2016-Jul-21 22:33N 29°44' W 095°03'0 0.0
2016-Jul-21 21:31N 29°44' W 095°03'0 0.0
2016-Jul-21 20:33N 29°44' W 095°03'3 2.6
2016-Jul-21 19:31N 29°46' W 095°06'0 0.0
2016-Jul-21 18:06N 29°46' W 095°06'0 0.0
2016-Jul-21 17:26N 29°46' W 095°06'2 0.2
2016-Jul-21 08:09N 29°47' W 095°04'0 0.0
2016-Jul-21 02:33N 29°47' W 095°04'0 0.0
2016-Jul-20 23:13N 29°47' W 095°04'0 0.2
2016-Jul-20 22:31N 29°47' W 095°04'1 0.6
2016-Jul-20 21:24N 29°47' W 095°05'1 0.1
2016-Jul-20 09:12N 29°46' W 095°06'2 2.6
2016-Jul-20 08:33N 29°44' W 095°07'1 0.0
2016-Jul-19 17:32N 29°44' W 095°07'2 1.9
2016-Jul-19 16:24N 29°46' W 095°06'0 0.6
2016-Jul-19 15:33N 29°45' W 095°06'0 0.0
2016-Jul-19 14:33N 29°45' W 095°06'0 0.0
2016-Jul-19 13:34N 29°45' W 095°06'0 0.0
2016-Jul-19 12:33N 29°45' W 095°06'0 0.0
2016-Jul-19 11:34N 29°45' W 095°06'0 0.0
2016-Jul-19 10:33N 29°45' W 095°06'0 0.0
2016-Jul-19 09:33N 29°45' W 095°06'0 0.4
2016-Jul-19 08:33N 29°46' W 095°05'0 0.0
2016-Jul-19 07:31N 29°46' W 095°05'0 0.0
2016-Jul-19 04:33N 29°46' W 095°05'0 0.0
2016-Jul-19 03:34N 29°46' W 095°05'0 0.0
2016-Jul-19 02:33N 29°46' W 095°05'0 0.5
2016-Jul-19 01:33N 29°45' W 095°06'2 2.1
2016-Jul-19 00:24N 29°44' W 095°08'6 2.7
2016-Jul-18 22:18N 29°43' W 095°14'3 0.1
2016-Jul-17 22:12N 29°45' W 095°11'4 4.3
2016-Jul-17 21:22N 29°45' W 095°06'1 1.6
2016-Jul-17 20:33N 29°46' W 095°06'0 0.0
2016-Jul-17 17:13N 29°46' W 095°06'0 0.0
2016-Jul-17 16:31N 29°46' W 095°06'0 0.0
2016-Jul-17 15:33N 29°46' W 095°06'0 0.0
2016-Jul-17 14:32N 29°46' W 095°06'0 0.0
2016-Jul-17 13:30N 29°46' W 095°06'0 0.0
2016-Jul-17 04:18N 29°46' W 095°06'2 2.2
2016-Jul-17 03:30N 29°47' W 095°04'0 0.0
2016-Jul-17 02:34N 29°47' W 095°04'0 0.0
2016-Jul-17 01:33N 29°47' W 095°04'0 0.0
2016-Jul-17 00:33N 29°47' W 095°04'0 0.0
2016-Jul-16 23:33N 29°47' W 095°04'0 0.0
2016-Jul-16 22:32N 29°47' W 095°04'0 0.0
2016-Jul-16 21:33N 29°47' W 095°04'0 0.0
2016-Jul-16 20:33N 29°47' W 095°04'0 0.0
2016-Jul-16 19:31N 29°47' W 095°04'0 0.0
2016-Jul-16 18:31N 29°47' W 095°04'0 0.0
2016-Jul-16 17:30N 29°47' W 095°04'0 0.0
2016-Jul-16 16:32N 29°47' W 095°04'0 0.0
2016-Jul-16 15:33N 29°47' W 095°04'3 2.1
2016-Jul-16 14:07N 29°44' W 095°06'1 0.1
2016-Jul-16 00:31N 29°46' W 095°05'0 0.4
2016-Jul-15 23:27N 29°46' W 095°06'7 2.3
2016-Jul-15 20:22N 29°44' W 095°13'4 5.4
2016-Jul-15 19:33N 29°44' W 095°08'3 1.4
2016-Jul-15 17:27N 29°46' W 095°05'1 0.6
2016-Jul-15 15:09N 29°45' W 095°06'  

Dump ship's entire track history